Terminal Aerodrome Forecast
Issued by NWS Billings, MT

Home | Current Version | Previous Version | Text Only | Print | Product List | Glossary On
Versions: 1 2 3 4 5 6 7 8 9 10 11 12 13 14 15 16 17 18 19 20 21 22 23 24
000
FTUS45 KBYZ 041738
TAFSHR
TAF
KSHR 041738Z 0418/0518 VRB05KT P6SM BKN090
     FM050400 31016G26KT P6SM VCSH BKN025
     FM050500 31016G25KT 6SM -SN BR OVC025
     FM051000 31016G25KT P6SM VCSH BKN040=

USA.gov is the U.S. government's official web portal to all federal, state and local government web resources and services.